Flight Track Log - Related Links

Times and Time Zones

All times are in EST time to prevent confusion due to time zone crossing. See the CHH7103 flight status page for this flight to view local times or setup timezone preferences in your user account.

Time Position Orientation Groundspeed Altitude Reporting Facility
EST Latitude Longitude Course Direction KTS MPH feet Rate Location/Type
Thu 07:15:00 PM 40.3074 117.1227 61° Northeast  Level Estimated
Thu 07:16:00 PM 40.3639 117.2578 61° Northeast  Level Estimated
Thu 07:17:00 PM 40.4201 117.3931 61° Northeast  Level Estimated
Thu 07:18:00 PM 40.4763 117.5286 61° Northeast  Level Estimated
Thu 07:19:00 PM 40.5322 117.6644 61° Northeast  Level Estimated
Thu 07:20:00 PM 40.5880 117.8004 62° Northeast  Level Estimated
Thu 07:21:00 PM 40.6437 117.9366 62° Northeast  Level Estimated
Thu 07:22:00 PM 40.6991 118.0731 62° Northeast  Level Estimated
Thu 07:23:00 PM 40.7545 118.2098 62° Northeast  Level Estimated
Thu 07:24:00 PM 40.8096 118.3467 62° Northeast  Level Estimated
Thu 07:25:00 PM 40.8646 118.4838 62° Northeast  Level Estimated
Thu 07:26:00 PM 40.9195 118.6212 62° Northeast  Level Estimated
Thu 07:27:00 PM 40.9741 118.7588 62° Northeast  Level Estimated
Thu 07:28:00 PM 41.0286 118.8966 62° Northeast  Level Estimated
Thu 07:29:00 PM 41.0830 119.0346 62° Northeast  Level Estimated
Thu 07:30:00 PM 41.1372 119.1729 62° Northeast  Level Estimated
Thu 07:31:00 PM 41.1912 119.3114 63° Northeast  Level Estimated
Thu 07:32:00 PM 41.2450 119.4501 63° Northeast  Level Estimated
Thu 07:33:00 PM 41.2987 119.5891 63° Northeast  Level Estimated
Thu 07:34:00 PM 41.3522 119.7283 63° Northeast  Level Estimated
Thu 07:35:00 PM 41.4056 119.8677 63° Northeast  Level Estimated
Thu 07:36:00 PM 41.4588 120.0073 63° Northeast  Level Estimated
Thu 07:37:00 PM 41.5118 120.1472 63° Northeast  Level Estimated
Thu 07:38:00 PM 41.5646 120.2873 63° Northeast  Level Estimated
Thu 07:39:00 PM 41.6173 120.4276 63° Northeast  Level Estimated
Thu 07:40:00 PM 41.6698 120.5682 63° Northeast  Level Estimated
Thu 07:41:00 PM 41.7221 120.7090 63° Northeast  Level Estimated
Thu 07:42:00 PM 41.7743 120.8500 64° Northeast  Level Estimated
Thu 07:43:00 PM 41.8262 120.9912 64° Northeast  Level Estimated
Thu 07:44:00 PM 41.8780 121.1327 64° Northeast  Level Estimated
Thu 07:45:00 PM 41.9297 121.2744 64° Northeast  Level Estimated
Thu 07:46:00 PM 41.9811 121.4164 64° Northeast  Level Estimated
Thu 07:47:00 PM 42.0324 121.5585 64° Northeast  Level Estimated
Thu 07:48:00 PM 42.0835 121.7009 64° Northeast  Level Estimated
Thu 07:49:00 PM 42.1344 121.8436 64° Northeast  Level Estimated
Thu 07:50:00 PM 42.1852 121.9864 64° Northeast  Level Estimated
Thu 07:51:00 PM 42.2358 122.1295 64° Northeast  Level Estimated
Thu 07:52:00 PM 42.2862 122.2728 65° Northeast  Level Estimated
Thu 07:53:00 PM 42.3364 122.4163 65° Northeast  Level Estimated
Thu 07:54:00 PM 42.3865 122.5601 65° Northeast  Level Estimated
Thu 07:55:00 PM 42.4363 122.7041 65° Northeast  Level Estimated
Thu 07:56:00 PM 42.4860 122.8483 65° Northeast  Level Estimated
Thu 07:57:00 PM 42.5355 122.9928 65° Northeast  Level Estimated
Thu 07:58:00 PM 42.5848 123.1375 65° Northeast  Level Estimated
Thu 07:59:00 PM 42.6339 123.2824 65° Northeast  Level Estimated
Thu 08:00:00 PM 42.6829 123.4275 65° Northeast  Level Estimated
Thu 08:01:00 PM 42.7317 123.5729 65° Northeast  Level Estimated
Thu 08:02:00 PM 42.7803 123.7185 66° East  Level Estimated
Thu 08:03:00 PM 42.8287 123.8643 66° East  Level Estimated
Thu 08:04:00 PM 42.8769 124.0104 66° East  Level Estimated
Thu 08:05:00 PM 42.9249 124.1566 66° East  Level Estimated
Thu 08:06:00 PM 42.9728 124.3032 66° East  Level Estimated
Thu 08:07:00 PM 43.0204 124.4499 66° East  Level Estimated
Thu 08:08:00 PM 43.0679 124.5969 66° East  Level Estimated
Thu 08:09:00 PM 43.1152 124.7441 66° East  Level Estimated
Thu 08:10:00 PM 43.1623 124.8915 66° East  Level Estimated
Thu 08:11:00 PM 43.2091 125.0391 66° East  Level Estimated
Thu 08:12:00 PM 43.2559 125.1870 67° East  Level Estimated
Thu 08:13:00 PM 43.3024 125.3351 67° East  Level Estimated
Thu 08:14:00 PM 43.3487 125.4834 67° East  Level Estimated
Thu 08:15:00 PM 43.3949 125.6320 67° East  Level Estimated
Thu 08:16:00 PM 43.4408 125.7808 67° East  Level Estimated
Thu 08:17:00 PM 43.4865 125.9298 67° East  Level Estimated
Thu 08:18:00 PM 43.5321 126.0790 67° East  Level Estimated
Thu 08:19:00 PM 43.5775 126.2284 67° East  Level Estimated
Thu 08:20:00 PM 43.6226 126.3781 67° East  Level Estimated
Thu 08:21:00 PM 43.6676 126.5280 67° East  Level Estimated
Thu 08:22:00 PM 43.7124 126.6782 68° East  Level Estimated
Thu 08:23:00 PM 43.7570 126.8285 68° East  Level Estimated
Thu 08:24:00 PM 43.8013 126.9791 68° East  Level Estimated
Thu 08:25:00 PM 43.8455 127.1299 68° East  Level Estimated
Thu 08:26:00 PM 43.8895 127.2809 68° East  Level Estimated
Thu 08:27:00 PM 43.9333 127.4322 68° East  Level Estimated
Thu 08:28:00 PM 43.9769 127.5836 68° East  Level Estimated
Thu 08:29:00 PM 44.0203 127.7353 68° East  Level Estimated
Thu 08:30:00 PM 44.0635 127.8872 68° East  Level Estimated
Thu 08:31:00 PM 44.1065 128.0394 68° East  Level Estimated
Thu 08:32:00 PM 44.1492 128.1917 69° East  Level Estimated
Thu 08:33:00 PM 44.1918 128.3443 69° East  Level Estimated
Thu 08:34:00 PM 44.2342 128.4971 69° East  Level Estimated
Thu 08:35:00 PM 44.2764 128.6501 69° East  Level Estimated
Thu 08:36:00 PM 44.3183 128.8033 69° East  Level Estimated
Thu 08:37:00 PM 44.3601 128.9568 69° East  Level Estimated
Thu 08:38:00 PM 44.4016 129.1104 69° East  Level Estimated
Thu 08:39:00 PM 44.4430 129.2643 69° East  Level Estimated
Thu 08:40:00 PM 44.4841 129.4184 69° East  Level Estimated
Thu 08:41:00 PM 44.5241 129.5690 70° East  Level Estimated
Thu 08:42:00 PM 44.5241 129.5690 35° Northeast  Level Estimated
Thu 08:43:00 PM 44.5241 129.5690 35° Northeast  Level Estimated
Thu 08:44:00 PM 44.5241 129.5690 35° Northeast  Level Estimated
Thu 08:45:00 PM 44.5241 129.5690 35° Northeast  Level Estimated
Thu 08:47:59 PM 44.5241 129.5690 35° Northeast  Level Estimated
Thu 08:49:00 PM 44.5241 129.5690 35° Northeast  Level Estimated
Thu 08:50:00 PM 44.5241 129.5690 35° Northeast  Level Estimated
Thu 08:51:00 PM 44.5241 129.5690 35° Northeast  Level Estimated
Thu 08:52:00 PM 44.5241 129.5690 35° Northeast  Level Estimated
Thu 08:53:00 PM 44.5241 129.5690 35° Northeast  Level Estimated
Thu 08:54:00 PM 44.5241 129.5690 35° Northeast  Level Estimated
Thu 08:55:00 PM 44.5241 129.5690 35° Northeast  Level Estimated
Thu 08:56:00 PM 44.5241 129.5690 35° Northeast  Level Estimated
Thu 08:57:00 PM 44.5241 129.5690 35° Northeast  Level Estimated
Thu 08:58:00 PM 44.5241 129.5690 35° Northeast  Level Estimated
Thu 08:59:00 PM 44.5241 129.5690 35° Northeast  Level Estimated
Thu 09:00:00 PM 44.5241 129.5690 35° Northeast  Level Estimated
Thu 09:01:00 PM 44.5241 129.5690 35° Northeast  Level Estimated
Thu 09:02:00 PM 44.5241 129.5690 35° Northeast  Level Estimated
Thu 09:03:00 PM 44.5241 129.5690 35° Northeast  Level Estimated
Thu 09:04:00 PM 44.5241 129.5690 35° Northeast  Level Estimated
Thu 09:05:00 PM 44.5241 129.5690 35° Northeast  Level Estimated
Thu 09:06:00 PM 44.5241 129.5690 35° Northeast  Level Estimated
Thu 09:07:00 PM 44.5241 129.5690 35° Northeast  Level Estimated
Thu 09:08:00 PM 44.5241 129.5690 35° Northeast  Level Estimated
Thu 09:09:00 PM 44.5241 129.5690 35° Northeast  Level Estimated
Thu 09:10:00 PM 44.5241 129.5690 35° Northeast  Level Estimated
Thu 09:11:00 PM 44.5241 129.5690 35° Northeast  Level Estimated
Thu 09:12:00 PM 44.5241 129.5690 35° Northeast  Level Estimated
Thu 09:13:00 PM 44.5241 129.5690 35° Northeast  Level Estimated
Thu 09:14:00 PM 44.5241 129.5690 35° Northeast  Level Estimated
Thu 09:15:00 PM 44.5241 129.5690 35° Northeast  Level Estimated
Thu 09:16:00 PM 44.5241 129.5690 35° Northeast  Level Estimated
Thu 09:17:00 PM 44.5241 129.5690 35° Northeast  Level Estimated
Thu 09:18:00 PM 44.5241 129.5690 35° Northeast  Level Estimated
Thu 09:19:00 PM 44.5241 129.5690 35° Northeast  Level Estimated
Thu 09:20:00 PM 44.5241 129.5690 35° Northeast  Level Estimated
Thu 09:21:00 PM 44.5241 129.5690 35° Northeast  Level Estimated
Thu 09:22:00 PM 44.5241 129.5690 35° Northeast  Level Estimated
Thu 09:23:00 PM 44.5241 129.5690 35° Northeast  Level Estimated
Thu 09:24:00 PM 44.5241 129.5690 35° Northeast  Level Estimated
Thu 09:25:00 PM 44.5241 129.5690 35° Northeast  Level Estimated
Thu 09:26:00 PM 44.5241 129.5690 35° Northeast  Level Estimated
Thu 09:27:00 PM 44.5241 129.5690 35° Northeast  Level Estimated
Thu 09:28:00 PM 44.5241 129.5690 35° Northeast  Level Estimated
Thu 09:29:00 PM 44.5241 129.5690 35° Northeast  Level Estimated
Thu 09:30:00 PM 44.5241 129.5690 35° Northeast  Level Estimated
Thu 09:31:00 PM 44.5241 129.5690 35° Northeast  Level Estimated
Thu 09:32:00 PM 44.5241 129.5690 35° Northeast  Level Estimated
Thu 09:33:00 PM 44.5241 129.5690 35° Northeast  Level Estimated
Thu 09:34:00 PM 44.5241 129.5690 35° Northeast  Level Estimated
Thu 09:35:00 PM 44.5241 129.5690 35° Northeast  Level Estimated
Thu 09:36:00 PM 44.5241 129.5690 35° Northeast  Level Estimated
Thu 09:37:00 PM 44.5241 129.5690 35° Northeast  Level Estimated
Thu 09:38:00 PM 44.5241 129.5690 35° Northeast  Level Estimated
Thu 09:39:00 PM 44.5241 129.5690 35° Northeast  Level Estimated
Thu 09:40:00 PM 44.5241 129.5690 35° Northeast  Level Estimated
Thu 09:41:00 PM 44.5241 129.5690 35° Northeast  Level Estimated
Thu 09:42:00 PM 44.5241 129.5690 35° Northeast  Level Estimated
Thu 09:43:00 PM 44.5241 129.5690 35° Northeast  Level Estimated
Thu 09:44:00 PM 44.5241 129.5690 35° Northeast  Level Estimated
Thu 09:45:00 PM 44.5241 129.5690 35° Northeast  Level Estimated
Thu 09:46:00 PM 44.5241 129.5690 35° Northeast  Level Estimated
Thu 09:47:00 PM 44.5241 129.5690 35° Northeast  Level Estimated
Thu 09:48:00 PM 44.5241 129.5690 35° Northeast  Level Estimated
Thu 09:49:00 PM 44.5241 129.5690 35° Northeast  Level Estimated
Thu 09:50:00 PM 44.5241 129.5690 35° Northeast  Level Estimated
Thu 09:51:00 PM 44.5241 129.5690 35° Northeast  Level Estimated
Thu 09:52:00 PM 44.5241 129.5690 35° Northeast  Level Estimated
Thu 09:53:00 PM 44.5241 129.5690 35° Northeast  Level Estimated
Thu 09:54:00 PM 44.5241 129.5690 35° Northeast  Level Estimated
Thu 09:55:00 PM 44.5241 129.5690 35° Northeast  Level Estimated
Thu 09:56:00 PM 44.5241 129.5690 35° Northeast  Level Estimated
Thu 09:57:00 PM 44.5241 129.5690 35° Northeast  Level Estimated
Thu 09:58:00 PM 44.5241 129.5690 35° Northeast  Level Estimated
Thu 09:59:00 PM 44.5241 129.5690 35° Northeast  Level Estimated
Thu 10:00:00 PM 44.5241 129.5690 35° Northeast  Level Estimated
Thu 10:01:00 PM 44.5241 129.5690 35° Northeast  Level Estimated
Thu 10:02:00 PM 44.5241 129.5690 35° Northeast  Level Estimated
Thu 10:03:00 PM 44.5241 129.5690 35° Northeast  Level Estimated
Thu 10:04:00 PM 44.5241 129.5690 35° Northeast  Level Estimated
Thu 10:05:00 PM 44.5241 129.5690 35° Northeast  Level Estimated
Thu 10:06:00 PM 44.5241 129.5690 35° Northeast  Level Estimated

Login

Don't have an account? Register now (free) for customized features, flight alerts, and more!